createdAt,value
2019-03-12T00:00:26.794Z,92.43
2019-03-12T00:01:26.783Z,92.63
2019-03-12T00:02:26.778Z,92.78
2019-03-12T00:03:26.773Z,92.68
2019-03-12T00:04:26.751Z,92.68
2019-03-12T00:05:26.740Z,92.53
2019-03-12T00:06:26.731Z,92.57
2019-03-12T00:07:26.720Z,92.99
2019-03-12T00:08:26.712Z,92.78
2019-03-12T00:09:26.709Z,92.68
2019-03-12T00:10:26.691Z,92.78
2019-03-12T00:11:26.678Z,92.78
2019-03-12T00:12:26.678Z,92.57
2019-03-12T00:13:26.657Z,92.88
2019-03-12T00:14:26.654Z,92.88
2019-03-12T00:15:26.654Z,92.57
2019-03-12T00:16:26.626Z,93.10
2019-03-12T00:17:26.615Z,92.26
2019-03-12T00:18:28.434Z,92.16
2019-03-12T00:19:26.593Z,92.26
2019-03-12T00:20:26.583Z,92.61
2019-03-12T00:21:26.583Z,92.16
2019-03-12T00:22:26.562Z,92.36
2019-03-12T00:23:26.554Z,92.26
2019-03-12T00:24:26.540Z,92.57
2019-03-12T00:25:26.533Z,92.26
2019-03-12T00:26:26.519Z,92.36
2019-03-12T00:27:26.518Z,92.36
2019-03-12T00:28:26.499Z,92.51
2019-03-12T00:29:26.490Z,92.47
2019-03-12T00:30:26.478Z,92.88
2019-03-12T00:31:26.467Z,92.72
2019-03-12T00:32:26.469Z,92.61
2019-03-12T00:33:26.489Z,92.61
2019-03-12T00:34:26.446Z,92.41
2019-03-12T00:35:26.427Z,92.72
2019-03-12T00:36:26.412Z,92.82
2019-03-12T00:37:26.415Z,92.93
2019-03-12T00:38:26.392Z,92.82
2019-03-12T00:39:26.392Z,92.61
2019-03-12T00:40:26.374Z,92.82
2019-03-12T00:41:26.362Z,92.86
2019-03-12T00:42:26.349Z,92.03
2019-03-12T00:43:26.338Z,92.76
2019-03-12T00:44:26.327Z,92.45
2019-03-12T00:45:26.332Z,92.41
2019-03-12T00:46:27.254Z,93.18
2019-03-12T00:47:26.295Z,92.45
2019-03-12T00:48:26.286Z,92.45
2019-03-12T00:49:26.276Z,92.66
2019-03-12T00:50:26.267Z,92.03
2019-03-12T00:51:26.265Z,92.97
2019-03-12T00:52:26.243Z,92.86
2019-03-12T00:53:26.232Z,92.45
2019-03-12T00:54:26.220Z,92.14
2019-03-12T00:55:26.209Z,92.55
2019-03-12T00:56:26.199Z,92.76
2019-03-12T00:57:26.278Z,92.76
2019-03-12T00:58:26.177Z,92.66
2019-03-12T00:59:26.167Z,92.97
2019-03-12T01:00:26.166Z,93.12
2019-03-12T01:01:26.145Z,92.91
2019-03-12T01:02:26.135Z,92.60
2019-03-12T01:03:26.138Z,92.91
2019-03-12T01:04:26.115Z,92.91
2019-03-12T01:05:26.105Z,93.23
2019-03-12T01:06:26.090Z,93.12
2019-03-12T01:07:26.080Z,93.01
2019-03-12T01:08:26.069Z,93.01
2019-03-12T01:09:26.068Z,92.91
2019-03-12T01:10:26.047Z,92.70
2019-03-12T01:11:26.036Z,92.91
2019-03-12T01:12:26.027Z,93.23
2019-03-12T01:13:26.020Z,92.91
2019-03-12T01:14:26.003Z,92.80
2019-03-12T01:15:26.075Z,92.60
2019-03-12T01:16:25.989Z,92.70
2019-03-12T01:17:25.983Z,92.70
2019-03-12T01:18:25.960Z,92.95
2019-03-12T01:19:25.949Z,92.91
2019-03-12T01:20:25.938Z,92.80
2019-03-12T01:21:25.937Z,92.95
2019-03-12T01:22:25.995Z,93.05
2019-03-12T01:23:25.906Z,93.27
2019-03-12T01:24:25.896Z,93.27
2019-03-12T01:25:25.887Z,92.91
2019-03-12T01:26:25.878Z,92.64
2019-03-12T01:27:25.892Z,92.74
2019-03-12T01:28:25.853Z,92.70
2019-03-12T01:29:25.840Z,93.01
2019-03-12T01:30:25.830Z,93.01
2019-03-12T01:31:25.819Z,92.49
2019-03-12T01:32:25.906Z,92.29
2019-03-12T01:33:25.814Z,92.60
2019-03-12T01:34:25.788Z,93.05
2019-03-12T01:35:25.784Z,93.05
2019-03-12T01:36:25.765Z,92.85
2019-03-12T01:37:25.753Z,92.74
2019-03-12T01:38:25.748Z,92.64
2019-03-12T01:39:25.744Z,92.08
2019-03-12T01:40:25.720Z,92.33
2019-03-12T01:41:25.710Z,92.29
2019-03-12T01:42:25.699Z,92.64
2019-03-12T01:43:25.688Z,92.43
2019-03-12T01:44:25.677Z,92.43
2019-03-12T01:45:25.683Z,92.43
2019-03-12T01:46:25.655Z,92.54
2019-03-12T01:47:25.649Z,92.43
2019-03-12T01:48:25.634Z,92.43
2019-03-12T01:49:25.623Z,92.22
2019-03-12T01:50:25.613Z,92.33
2019-03-12T01:51:25.707Z,92.22
2019-03-12T01:52:25.591Z,92.74
2019-03-12T01:53:25.580Z,91.91
2019-03-12T01:54:25.570Z,92.02
2019-03-12T01:55:25.560Z,92.54
2019-03-12T01:56:25.548Z,92.12
2019-03-12T01:57:25.557Z,92.95
2019-03-12T01:58:25.527Z,93.05
2019-03-12T01:59:25.517Z,92.95
2019-03-12T02:00:25.505Z,91.91
2019-03-12T02:01:25.495Z,92.85
2019-03-12T02:02:25.495Z,92.85
2019-03-12T02:03:25.485Z,92.85
2019-03-12T02:04:25.463Z,92.12
2019-03-12T02:05:25.466Z,92.22
2019-03-12T02:06:25.442Z,92.12
2019-03-12T02:07:25.432Z,92.12
2019-03-12T02:08:25.421Z,92.22
2019-03-12T02:09:25.422Z,92.43
2019-03-12T02:10:25.401Z,92.54
2019-03-12T02:11:25.390Z,92.79
2019-03-12T02:12:25.379Z,92.79
2019-03-12T02:13:25.371Z,92.89
2019-03-12T02:14:25.378Z,93.10
2019-03-12T02:15:25.358Z,92.99
2019-03-12T02:16:25.337Z,92.89
2019-03-12T02:17:25.326Z,93.10
2019-03-12T02:18:25.315Z,92.58
2019-03-12T02:19:25.305Z,92.58
2019-03-12T02:20:25.295Z,92.58
2019-03-12T02:21:25.296Z,92.68
2019-03-12T02:22:25.274Z,92.68
2019-03-12T02:23:25.263Z,92.58
2019-03-12T02:24:25.253Z,92.72
2019-03-12T02:25:25.243Z,92.89
2019-03-12T02:26:25.233Z,92.89
2019-03-12T02:27:25.234Z,92.79
2019-03-12T02:28:25.210Z,92.99
2019-03-12T02:29:25.204Z,92.68
2019-03-12T02:30:25.192Z,93.04
2019-03-12T02:31:25.182Z,92.62
2019-03-12T02:32:25.209Z,92.52
2019-03-12T02:33:25.172Z,93.14
2019-03-12T02:34:25.149Z,92.72
2019-03-12T02:35:25.170Z,92.89
2019-03-12T02:36:25.126Z,93.04
2019-03-12T02:37:25.119Z,93.04
2019-03-12T02:38:25.108Z,92.93
2019-03-12T02:39:25.107Z,93.35
2019-03-12T02:40:25.090Z,93.04
2019-03-12T02:41:25.074Z,92.72
2019-03-12T02:42:25.065Z,92.83
2019-03-12T02:43:25.058Z,92.93
2019-03-12T02:44:25.044Z,93.04
2019-03-12T02:45:25.049Z,92.83
2019-03-12T02:46:25.023Z,92.83
2019-03-12T02:47:25.013Z,92.93
2019-03-12T02:48:25.013Z,92.83
2019-03-12T02:49:25.022Z,92.72
2019-03-12T02:50:24.982Z,92.93
2019-03-12T02:51:24.990Z,92.93
2019-03-12T02:52:25.063Z,93.04
2019-03-12T02:53:24.951Z,92.72
2019-03-12T02:54:24.953Z,92.62
2019-03-12T02:55:24.930Z,92.83
2019-03-12T02:56:24.933Z,92.46
2019-03-12T02:57:24.920Z,92.52
2019-03-12T02:58:24.897Z,92.66
2019-03-12T02:59:24.887Z,92.83
2019-03-12T03:00:24.877Z,92.72
2019-03-12T03:01:24.878Z,92.83
2019-03-12T03:02:24.855Z,93.04
2019-03-12T03:03:24.858Z,93.04
2019-03-12T03:04:24.857Z,92.87
2019-03-12T03:05:24.824Z,93.08
2019-03-12T03:06:24.813Z,93.04
2019-03-12T03:07:24.803Z,92.97
2019-03-12T03:08:24.792Z,92.03
2019-03-12T03:09:24.799Z,92.31
2019-03-12T03:10:24.775Z,92.31
2019-03-12T03:11:24.766Z,92.00
2019-03-12T03:12:24.771Z,91.68
2019-03-12T03:13:24.740Z,91.68
2019-03-12T03:14:24.752Z,91.52
2019-03-12T03:15:24.732Z,91.68
2019-03-12T03:16:24.859Z,91.58
2019-03-12T03:17:24.697Z,91.68
2019-03-12T03:18:24.687Z,91.68
2019-03-12T03:19:24.676Z,91.00
2019-03-12T03:20:24.663Z,91.06
2019-03-12T03:21:24.667Z,91.00
2019-03-12T03:22:24.645Z,91.06
2019-03-12T03:23:24.634Z,91.37
2019-03-12T03:24:24.639Z,91.58
2019-03-12T03:25:24.611Z,91.58
2019-03-12T03:26:24.600Z,91.58
2019-03-12T03:27:28.980Z,91.58
2019-03-12T03:28:25.601Z,91.58
2019-03-12T03:29:24.581Z,91.47
2019-03-12T03:30:24.568Z,91.16
2019-03-12T03:31:24.555Z,91.06
2019-03-12T03:32:24.537Z,90.75
2019-03-12T03:33:24.537Z,90.54
2019-03-12T03:34:27.797Z,90.64
2019-03-12T03:35:24.505Z,90.64
2019-03-12T03:36:24.497Z,90.54
2019-03-12T03:37:24.536Z,90.85
2019-03-12T03:38:24.474Z,90.54
2019-03-12T03:39:24.475Z,90.64
2019-03-12T03:40:24.452Z,90.54
2019-03-12T03:41:24.443Z,90.54
2019-03-12T03:42:24.432Z,90.64
2019-03-12T03:43:24.435Z,90.89
2019-03-12T03:44:24.412Z,91.27
2019-03-12T03:45:24.416Z,91.27
2019-03-12T03:46:24.392Z,91.52
2019-03-12T03:47:24.383Z,91.06
2019-03-12T03:48:24.388Z,91.62
2019-03-12T03:49:24.357Z,91.83
2019-03-12T03:50:24.348Z,91.41
2019-03-12T03:51:24.344Z,91.31
2019-03-12T03:52:24.329Z,91.41
2019-03-12T03:53:24.314Z,91.31
2019-03-12T03:54:24.307Z,91.31
2019-03-12T03:55:24.337Z,91.14
2019-03-12T03:56:24.294Z,91.10
2019-03-12T03:57:24.282Z,91.00
2019-03-12T03:58:24.261Z,91.72
2019-03-12T03:59:24.370Z,91.72
2019-03-12T04:00:24.240Z,91.62
2019-03-12T04:01:24.231Z,91.72
2019-03-12T04:02:24.220Z,91.87
2019-03-12T04:03:24.217Z,91.97
2019-03-12T04:04:24.203Z,92.18
2019-03-12T04:05:24.204Z,92.08
2019-03-12T04:06:24.175Z,92.08
2019-03-12T04:07:24.165Z,92.40
2019-03-12T04:08:24.160Z,92.50
2019-03-12T04:09:24.169Z,92.40
2019-03-12T04:10:24.133Z,92.29
2019-03-12T04:11:24.121Z,92.40
2019-03-12T04:12:24.121Z,92.91
2019-03-12T04:13:24.103Z,92.40
2019-03-12T04:14:24.092Z,92.29
2019-03-12T04:15:24.093Z,92.14
2019-03-12T04:16:24.068Z,92.91
2019-03-12T04:17:24.068Z,92.56
2019-03-12T04:18:24.049Z,92.40
2019-03-12T04:19:24.041Z,92.91
2019-03-12T04:20:24.024Z,92.97
2019-03-12T04:21:24.031Z,92.14
2019-03-12T04:22:24.003Z,93.02
2019-03-12T04:23:23.993Z,92.87
2019-03-12T04:24:23.983Z,93.08
2019-03-12T04:25:23.975Z,92.87
2019-03-12T04:26:23.967Z,92.87
2019-03-12T04:27:23.961Z,92.66
2019-03-12T04:28:23.940Z,92.97
2019-03-12T04:29:23.941Z,92.14
2019-03-12T04:30:23.919Z,92.25
2019-03-12T04:31:23.908Z,92.56
2019-03-12T04:32:23.905Z,92.56
2019-03-12T04:33:23.906Z,92.46
2019-03-12T04:34:23.881Z,91.72
2019-03-12T04:35:23.886Z,91.62
2019-03-12T04:36:23.857Z,91.68
2019-03-12T04:37:23.855Z,91.72
2019-03-12T04:38:23.840Z,91.83
2019-03-12T04:39:23.860Z,91.93
2019-03-12T04:40:23.813Z,91.93
2019-03-12T04:41:23.803Z,91.93
2019-03-12T04:42:23.793Z,91.52
2019-03-12T04:43:23.785Z,91.68
2019-03-12T04:44:23.779Z,91.62
2019-03-12T04:45:23.771Z,91.47
2019-03-12T04:46:23.753Z,91.37
2019-03-12T04:47:23.744Z,91.62
2019-03-12T04:48:23.730Z,91.47
2019-03-12T04:49:23.734Z,91.58
2019-03-12T04:50:23.708Z,91.47
2019-03-12T04:51:23.710Z,91.47
2019-03-12T04:52:23.693Z,92.10
2019-03-12T04:53:23.678Z,91.68
2019-03-12T04:54:23.668Z,91.93
2019-03-12T04:55:23.678Z,91.62
2019-03-12T04:56:23.650Z,91.83
2019-03-12T04:57:23.654Z,91.93
2019-03-12T04:58:23.626Z,91.47
2019-03-12T04:59:23.616Z,91.41
2019-03-12T05:00:23.606Z,91.72
2019-03-12T05:01:23.605Z,91.83
2019-03-12T05:02:23.593Z,91.93
2019-03-12T05:03:23.590Z,91.93
2019-03-12T05:04:23.564Z,91.72
2019-03-12T05:05:23.556Z,91.83
2019-03-12T05:06:23.544Z,91.62
2019-03-12T05:07:23.534Z,91.83
2019-03-12T05:08:23.523Z,91.62
2019-03-12T05:09:23.533Z,91.37
2019-03-12T05:10:23.502Z,91.93
2019-03-12T05:11:23.492Z,91.78
2019-03-12T05:12:23.482Z,91.52
2019-03-12T05:13:23.471Z,91.62
2019-03-12T05:14:23.464Z,92.10
2019-03-12T05:15:23.463Z,92.14
2019-03-12T05:16:23.450Z,92.10
2019-03-12T05:17:23.434Z,92.21
2019-03-12T05:18:23.419Z,92.25
2019-03-12T05:19:23.409Z,92.14
2019-03-12T05:20:23.399Z,92.03
2019-03-12T05:21:23.401Z,92.25
2019-03-12T05:22:23.378Z,92.35
2019-03-12T05:23:23.368Z,91.58
2019-03-12T05:24:23.356Z,91.58
2019-03-12T05:25:23.346Z,91.47
2019-03-12T05:26:23.336Z,91.68
2019-03-12T05:27:25.014Z,91.58
2019-03-12T05:28:23.317Z,91.47
2019-03-12T05:29:23.306Z,91.47
2019-03-12T05:30:23.296Z,91.06
2019-03-12T05:31:23.287Z,91.37
2019-03-12T05:32:23.273Z,91.27
2019-03-12T05:33:23.274Z,91.27
2019-03-12T05:34:23.485Z,91.41
2019-03-12T05:35:23.276Z,91.27
2019-03-12T05:36:23.234Z,91.37
2019-03-12T05:37:23.226Z,91.47
2019-03-12T05:38:23.214Z,91.16
2019-03-12T05:39:23.218Z,90.85
2019-03-12T05:40:23.191Z,90.75
2019-03-12T05:41:23.186Z,91.62
2019-03-12T05:42:23.168Z,90.64
2019-03-12T05:43:23.158Z,90.64
2019-03-12T05:44:23.147Z,90.44
2019-03-12T05:45:23.158Z,90.44
2019-03-12T05:46:23.129Z,90.64
2019-03-12T05:47:23.115Z,90.44
2019-03-12T05:48:23.108Z,90.54
2019-03-12T05:49:23.093Z,90.64
2019-03-12T05:50:23.084Z,90.44
2019-03-12T05:51:23.083Z,90.22
2019-03-12T05:52:23.062Z,89.91
2019-03-12T05:53:23.052Z,90.12
2019-03-12T05:54:23.041Z,89.81
2019-03-12T05:55:23.042Z,90.33
2019-03-12T05:56:23.020Z,90.33
2019-03-12T05:57:23.039Z,90.22
2019-03-12T05:58:23.016Z,90.01
2019-03-12T05:59:22.990Z,90.01
2019-03-12T06:00:22.984Z,89.91
2019-03-12T06:01:23.050Z,89.91
2019-03-12T06:02:22.961Z,90.12
2019-03-12T06:03:22.976Z,90.01
2019-03-12T06:04:22.938Z,89.60
2019-03-12T06:05:22.927Z,89.39
2019-03-12T06:06:22.920Z,89.60
2019-03-12T06:07:22.906Z,89.98
2019-03-12T06:08:22.896Z,89.70
2019-03-12T06:09:30.274Z,89.50
2019-03-12T06:10:23.875Z,89.60
2019-03-12T06:11:22.865Z,89.39
2019-03-12T06:12:22.854Z,89.70
2019-03-12T06:13:22.844Z,89.60
2019-03-12T06:14:22.834Z,89.56
2019-03-12T06:15:22.834Z,89.60
2019-03-12T06:16:22.815Z,89.39
2019-03-12T06:17:22.803Z,89.76
2019-03-12T06:18:22.792Z,89.35
2019-03-12T06:19:22.782Z,89.56
2019-03-12T06:20:22.773Z,88.83
2019-03-12T06:21:22.772Z,88.83
2019-03-12T06:22:22.750Z,89.20
2019-03-12T06:23:22.739Z,88.79
2019-03-12T06:24:22.730Z,88.58
2019-03-12T06:25:22.719Z,88.58
2019-03-12T06:26:22.708Z,88.48
2019-03-12T06:27:22.706Z,88.48
2019-03-12T06:28:22.686Z,88.68
2019-03-12T06:29:22.674Z,88.89
2019-03-12T06:30:25.707Z,88.58
2019-03-12T06:31:22.653Z,88.79
2019-03-12T06:32:22.641Z,88.33
2019-03-12T06:33:24.278Z,88.23
2019-03-12T06:34:22.620Z,88.02
2019-03-12T06:35:22.609Z,88.96
2019-03-12T06:36:22.600Z,88.54
2019-03-12T06:37:22.588Z,88.02
2019-03-12T06:38:22.579Z,87.81
2019-03-12T06:39:22.578Z,88.23
2019-03-12T06:40:22.556Z,87.92
2019-03-12T06:41:22.544Z,87.50
2019-03-12T06:42:22.535Z,87.60
2019-03-12T06:43:22.524Z,87.60
2019-03-12T06:44:22.516Z,87.56
2019-03-12T06:45:22.515Z,88.19
2019-03-12T06:46:22.493Z,88.09
2019-03-12T06:47:22.482Z,87.56
2019-03-12T06:48:22.471Z,87.56
2019-03-12T06:49:22.461Z,87.56
2019-03-12T06:50:22.450Z,87.77
2019-03-12T06:51:22.450Z,87.77
2019-03-12T06:52:22.428Z,88.25
2019-03-12T06:53:22.419Z,87.42
2019-03-12T06:54:22.409Z,87.66
2019-03-12T06:55:22.398Z,87.21
2019-03-12T06:56:22.386Z,87.32
2019-03-12T06:57:22.388Z,87.42
2019-03-12T06:58:22.366Z,87.42
2019-03-12T06:59:22.357Z,86.65
2019-03-12T07:00:22.345Z,86.24
2019-03-12T07:01:22.336Z,86.13
2019-03-12T07:02:22.324Z,86.09
2019-03-12T07:03:22.325Z,86.30
2019-03-12T07:04:22.303Z,85.88
2019-03-12T07:05:22.293Z,85.12
2019-03-12T07:06:22.283Z,85.57
2019-03-12T07:07:22.271Z,85.74
2019-03-12T07:08:22.260Z,85.12
2019-03-12T07:09:22.259Z,85.29
2019-03-12T07:10:22.238Z,85.39
2019-03-12T07:11:22.234Z,84.88
2019-03-12T07:12:22.217Z,85.19
2019-03-12T07:13:22.206Z,83.48
2019-03-12T07:14:22.836Z,84.77
2019-03-12T07:15:22.196Z,84.36
2019-03-12T07:16:22.182Z,84.15
2019-03-12T07:17:22.168Z,84.88
2019-03-12T07:18:22.155Z,84.77
2019-03-12T07:19:22.144Z,84.88
2019-03-12T07:20:22.140Z,85.29
2019-03-12T07:21:22.138Z,84.81
2019-03-12T07:22:22.113Z,84.36
2019-03-12T07:23:22.103Z,85.19
2019-03-12T07:24:22.092Z,85.33
2019-03-12T07:25:22.082Z,85.43
2019-03-12T07:26:22.070Z,85.53
2019-03-12T07:27:22.073Z,85.74
2019-03-12T07:28:22.050Z,85.85
2019-03-12T07:29:22.039Z,85.91
2019-03-12T07:30:22.029Z,86.47
2019-03-12T07:31:22.111Z,86.16
2019-03-12T07:32:22.008Z,85.95
2019-03-12T07:33:22.016Z,86.02
2019-03-12T07:34:21.987Z,85.53
2019-03-12T07:35:22.839Z,86.12
2019-03-12T07:36:21.966Z,85.91
2019-03-12T07:37:21.955Z,86.12
2019-03-12T07:38:21.945Z,86.22
2019-03-12T07:39:21.945Z,85.85
2019-03-12T07:40:21.924Z,86.54
2019-03-12T07:41:30.201Z,87.05
2019-03-12T07:42:22.903Z,85.91
2019-03-12T07:43:21.894Z,86.95
2019-03-12T07:44:21.883Z,87.16
2019-03-12T07:45:21.888Z,87.01
2019-03-12T07:46:21.862Z,85.91
2019-03-12T07:47:34.879Z,87.26
2019-03-12T07:48:22.839Z,87.12
2019-03-12T07:49:21.829Z,87.12
2019-03-12T07:50:21.819Z,87.22
2019-03-12T07:51:21.829Z,87.01
2019-03-12T07:52:21.798Z,87.22
2019-03-12T07:53:21.788Z,87.32
2019-03-12T07:54:21.776Z,86.39
2019-03-12T07:55:21.766Z,86.08
2019-03-12T07:56:21.758Z,85.87
2019-03-12T07:57:21.755Z,86.15
2019-03-12T07:58:34.918Z,86.08
2019-03-12T07:59:22.727Z,86.04
2019-03-12T08:00:21.720Z,86.55
2019-03-12T08:01:24.822Z,86.35
2019-03-12T08:02:21.695Z,86.04
2019-03-12T08:03:21.694Z,87.07
2019-03-12T08:04:21.673Z,86.97
2019-03-12T08:05:21.663Z,87.07
2019-03-12T08:06:21.654Z,87.07
2019-03-12T08:07:21.655Z,86.15
2019-03-12T08:08:21.631Z,86.87
2019-03-12T08:09:21.633Z,86.87
2019-03-12T08:10:21.612Z,86.87
2019-03-12T08:11:21.599Z,86.25
2019-03-12T08:12:21.589Z,86.04
2019-03-12T08:13:21.578Z,86.35
2019-03-12T08:14:21.568Z,86.25
2019-03-12T08:15:23.363Z,87.07
2019-03-12T08:16:21.548Z,87.04
2019-03-12T08:17:21.537Z,87.24
2019-03-12T08:18:21.526Z,87.18
2019-03-12T08:19:21.516Z,87.35
2019-03-12T08:20:21.510Z,87.14
2019-03-12T08:21:22.783Z,87.80
2019-03-12T08:22:21.485Z,87.87
2019-03-12T08:23:21.473Z,87.55
2019-03-12T08:24:21.463Z,87.76
2019-03-12T08:25:21.452Z,87.45
2019-03-12T08:26:21.444Z,87.87
2019-03-12T08:27:21.452Z,87.20
2019-03-12T08:28:21.421Z,87.55
2019-03-12T08:29:21.415Z,87.51
2019-03-12T08:30:21.399Z,87.72
2019-03-12T08:31:21.388Z,86.79
2019-03-12T08:32:23.762Z,86.79
2019-03-12T08:33:21.391Z,87.10
2019-03-12T08:34:21.356Z,87.10
2019-03-12T08:35:21.349Z,86.79
2019-03-12T08:36:21.334Z,86.99
2019-03-12T08:37:21.321Z,86.99
2019-03-12T08:38:21.312Z,87.10
2019-03-12T08:39:21.311Z,85.61
2019-03-12T08:40:21.289Z,86.17
2019-03-12T08:41:21.278Z,85.61
2019-03-12T08:42:21.290Z,86.02
2019-03-12T08:43:21.256Z,85.61
2019-03-12T08:44:21.245Z,85.30
2019-03-12T08:45:21.245Z,85.50
2019-03-12T08:46:22.266Z,84.99
2019-03-12T08:47:21.212Z,85.61
2019-03-12T08:48:21.201Z,85.30
2019-03-12T08:49:21.190Z,84.99
2019-03-12T08:50:21.180Z,84.53
2019-03-12T08:51:21.182Z,84.53
2019-03-12T08:52:21.157Z,84.64
2019-03-12T08:53:21.148Z,84.64
2019-03-12T08:54:21.557Z,84.53
2019-03-12T08:55:21.128Z,84.33
2019-03-12T08:56:21.114Z,83.77
2019-03-12T08:57:21.117Z,84.50
2019-03-12T08:58:21.093Z,83.25
2019-03-12T08:59:21.087Z,82.84
2019-03-12T09:00:23.947Z,83.22
2019-03-12T09:01:21.062Z,83.32
2019-03-12T09:02:21.050Z,81.77
2019-03-12T09:03:21.059Z,81.67
2019-03-12T09:04:21.029Z,82.08
2019-03-12T09:05:21.022Z,82.08
2019-03-12T09:06:21.008Z,82.60
2019-03-12T09:07:20.997Z,82.08
2019-03-12T09:08:20.987Z,81.87
2019-03-12T09:09:20.989Z,80.94
2019-03-12T09:10:20.965Z,81.15
2019-03-12T09:11:20.956Z,81.98
2019-03-12T09:12:20.944Z,80.94
2019-03-12T09:13:20.935Z,81.67
2019-03-12T09:14:20.924Z,80.94
2019-03-12T09:15:20.926Z,81.25
2019-03-12T09:16:20.903Z,81.01
2019-03-12T09:17:20.891Z,81.84
2019-03-12T09:18:20.882Z,81.77
2019-03-12T09:19:20.870Z,82.25
2019-03-12T09:20:20.864Z,81.63
2019-03-12T09:21:20.862Z,81.42
2019-03-12T09:22:20.839Z,81.46
2019-03-12T09:23:20.833Z,81.42
2019-03-12T09:24:20.816Z,81.21
2019-03-12T09:25:20.806Z,81.01
2019-03-12T09:26:20.794Z,80.90
2019-03-12T09:27:20.795Z,80.90
2019-03-12T09:28:20.776Z,81.32
2019-03-12T09:29:20.763Z,81.59
2019-03-12T09:30:20.752Z,80.76
2019-03-12T09:31:20.745Z,80.56
2019-03-12T09:32:20.800Z,80.35
2019-03-12T09:33:20.736Z,80.35
2019-03-12T09:34:20.709Z,80.25
2019-03-12T09:35:20.701Z,80.15
2019-03-12T09:36:20.689Z,80.15
2019-03-12T09:37:20.680Z,80.35
2019-03-12T09:38:20.667Z,80.00
2019-03-12T09:39:20.664Z,78.25
2019-03-12T09:40:20.649Z,78.77
2019-03-12T09:41:20.630Z,77.73
2019-03-12T09:42:20.620Z,78.56
2019-03-12T09:43:20.631Z,78.87
2019-03-12T09:44:20.603Z,78.94
2019-03-12T09:45:20.597Z,78.25
2019-03-12T09:46:20.576Z,77.53
2019-03-12T09:47:20.565Z,77.53
2019-03-12T09:48:20.555Z,77.53
2019-03-12T09:49:20.543Z,77.59
2019-03-12T09:50:20.532Z,77.91
2019-03-12T09:51:20.531Z,76.98
2019-03-12T09:52:20.511Z,76.87
2019-03-12T09:53:20.508Z,76.67
2019-03-12T09:54:20.489Z,76.87
2019-03-12T09:55:20.487Z,75.49
2019-03-12T09:56:20.466Z,76.04
2019-03-12T09:57:20.473Z,76.63
2019-03-12T09:58:20.445Z,75.70
2019-03-12T09:59:20.435Z,76.01
2019-03-12T10:00:20.423Z,75.43
2019-03-12T10:01:20.414Z,75.18
2019-03-12T10:02:20.402Z,75.22
2019-03-12T10:03:20.410Z,75.63
2019-03-12T10:04:20.404Z,75.39
2019-03-12T10:05:20.372Z,75.29
2019-03-12T10:06:20.359Z,74.98
2019-03-12T10:07:20.350Z,74.98
2019-03-12T10:08:20.338Z,73.64
2019-03-12T10:09:20.339Z,73.95
2019-03-12T10:10:20.319Z,74.05
2019-03-12T10:11:20.307Z,74.26
2019-03-12T10:12:20.298Z,73.54
2019-03-12T10:13:20.285Z,72.61
2019-03-12T10:14:20.275Z,73.22
2019-03-12T10:15:20.275Z,72.88
2019-03-12T10:16:20.254Z,72.71
2019-03-12T10:17:20.243Z,72.40
2019-03-12T10:18:20.233Z,74.26
2019-03-12T10:19:20.221Z,73.40
2019-03-12T10:20:20.216Z,72.71
2019-03-12T10:21:20.240Z,72.16
2019-03-12T10:22:20.189Z,71.55
2019-03-12T10:23:20.178Z,71.75
2019-03-12T10:24:20.168Z,71.55
2019-03-12T10:25:20.158Z,72.06
2019-03-12T10:26:20.147Z,72.58
2019-03-12T10:27:20.145Z,71.55
2019-03-12T10:28:20.132Z,71.55
2019-03-12T10:29:20.115Z,70.82
2019-03-12T10:30:20.102Z,70.20
2019-03-12T10:31:20.095Z,70.51
2019-03-12T10:32:20.086Z,70.10
2019-03-12T10:33:20.085Z,70.68
2019-03-12T10:34:28.967Z,70.51
2019-03-12T10:35:21.050Z,70.10
2019-03-12T10:36:20.229Z,70.31
2019-03-12T10:37:20.029Z,70.58
2019-03-12T10:38:20.021Z,69.79
2019-03-12T10:39:20.028Z,70.28
2019-03-12T10:40:20.006Z,70.28
2019-03-12T10:41:19.986Z,69.35
2019-03-12T10:42:19.975Z,70.28
2019-03-12T10:43:19.965Z,68.62
2019-03-12T10:44:19.956Z,68.42
2019-03-12T10:45:19.954Z,67.90
2019-03-12T10:46:19.932Z,68.32
2019-03-12T10:47:19.938Z,67.80
2019-03-12T10:48:19.911Z,68.62
2019-03-12T10:49:19.900Z,68.52
2019-03-12T10:50:19.890Z,67.70
2019-03-12T10:51:19.894Z,67.60
2019-03-12T10:52:19.872Z,67.39
2019-03-12T10:53:19.859Z,67.36
2019-03-12T10:54:19.847Z,67.29
2019-03-12T10:55:19.837Z,68.39
2019-03-12T10:56:19.829Z,68.52
2019-03-12T10:57:21.643Z,68.59
2019-03-12T10:58:19.806Z,67.46
2019-03-12T10:59:19.795Z,66.22
2019-03-12T11:00:19.795Z,65.92
2019-03-12T11:01:19.777Z,65.71
2019-03-12T11:02:19.763Z,64.54
2019-03-12T11:03:19.764Z,64.03
2019-03-12T11:04:19.740Z,63.93
2019-03-12T11:05:19.732Z,63.62
2019-03-12T11:06:19.719Z,63.62
2019-03-12T11:07:19.708Z,63.62
2019-03-12T11:08:19.696Z,63.72
2019-03-12T11:09:19.704Z,63.52
2019-03-12T11:10:19.676Z,63.42
2019-03-12T11:11:19.665Z,63.21
2019-03-12T11:12:19.653Z,63.21
2019-03-12T11:13:19.643Z,63.52
2019-03-12T11:14:19.631Z,63.62
2019-03-12T11:15:19.632Z,63.52
2019-03-12T11:16:19.613Z,63.82
2019-03-12T11:17:19.598Z,62.87
2019-03-12T11:18:19.588Z,61.77
2019-03-12T11:19:19.577Z,62.25
2019-03-12T11:20:19.575Z,62.87
2019-03-12T11:21:19.574Z,61.84
2019-03-12T11:22:19.545Z,63.69
2019-03-12T11:23:19.532Z,61.53
2019-03-12T11:24:19.523Z,61.63
2019-03-12T11:25:27.451Z,62.15
2019-03-12T11:26:20.509Z,60.91
2019-03-12T11:27:19.489Z,61.84
2019-03-12T11:28:19.477Z,62.56
2019-03-12T11:29:19.466Z,62.35
2019-03-12T11:30:19.456Z,61.94
2019-03-12T11:31:19.445Z,61.91
2019-03-12T11:32:19.445Z,62.12
2019-03-12T11:33:19.422Z,61.61
2019-03-12T11:34:19.413Z,61.91
2019-03-12T11:35:19.402Z,63.15
2019-03-12T11:36:19.412Z,61.91
2019-03-12T11:37:19.398Z,62.23
2019-03-12T11:38:19.389Z,61.79
2019-03-12T11:39:19.358Z,60.58
2019-03-12T11:40:19.346Z,60.27
2019-03-12T11:41:19.345Z,61.09
2019-03-12T11:42:19.469Z,60.75
2019-03-12T11:43:19.331Z,60.14
2019-03-12T11:44:19.314Z,60.35
2019-03-12T11:45:20.577Z,59.73
2019-03-12T11:46:20.281Z,60.45
2019-03-12T11:47:19.271Z,59.52
2019-03-12T11:48:19.261Z,60.45
2019-03-12T11:49:19.279Z,59.93
2019-03-12T11:50:19.334Z,59.22
2019-03-12T11:51:19.228Z,60.14
2019-03-12T11:52:19.217Z,59.22
2019-03-12T11:53:19.208Z,59.11
2019-03-12T11:54:19.220Z,59.52
2019-03-12T11:55:19.209Z,58.98
2019-03-12T11:56:19.185Z,58.80
2019-03-12T11:57:19.165Z,58.50
2019-03-12T11:58:19.165Z,58.78
2019-03-12T11:59:19.144Z,58.78
2019-03-12T12:00:19.650Z,56.93
2019-03-12T12:01:19.121Z,57.54
2019-03-12T12:02:19.121Z,56.51
2019-03-12T12:03:19.100Z,57.75
2019-03-12T12:04:19.090Z,55.98
2019-03-12T12:05:19.080Z,55.98
2019-03-12T12:06:19.136Z,54.74
2019-03-12T12:07:19.057Z,56.08
2019-03-12T12:08:19.056Z,56.28
2019-03-12T12:09:19.055Z,56.38
2019-03-12T12:10:19.168Z,56.79
2019-03-12T12:11:19.012Z,54.74
2019-03-12T12:12:19.006Z,56.08
2019-03-12T12:13:18.991Z,55.85
2019-03-12T12:14:18.992Z,55.57
2019-03-12T12:15:18.969Z,54.13
2019-03-12T12:16:18.958Z,52.66
2019-03-12T12:17:18.946Z,52.17
2019-03-12T12:18:18.938Z,52.25
2019-03-12T12:19:18.924Z,53.20
2019-03-12T12:20:29.010Z,53.28
2019-03-12T12:21:19.904Z,52.25
2019-03-12T12:22:18.892Z,52.25
2019-03-12T12:23:18.881Z,52.87
2019-03-12T12:24:18.869Z,52.87
2019-03-12T12:25:18.861Z,52.87
2019-03-12T12:26:18.872Z,53.28
2019-03-12T12:27:18.836Z,52.66
2019-03-12T12:28:18.825Z,52.76
2019-03-12T12:29:18.813Z,53.38
2019-03-12T12:30:18.803Z,52.46
2019-03-12T12:31:18.792Z,53.25
2019-03-12T12:32:18.793Z,52.33
2019-03-12T12:33:18.770Z,52.36
2019-03-12T12:34:18.759Z,51.53
2019-03-12T12:35:18.751Z,51.95
2019-03-12T12:36:18.737Z,51.64
2019-03-12T12:37:18.732Z,52.15
2019-03-12T12:38:18.728Z,52.87
2019-03-12T12:39:18.712Z,52.46
2019-03-12T12:40:18.697Z,52.66
2019-03-12T12:41:18.684Z,51.53
2019-03-12T12:42:18.673Z,52.15
2019-03-12T12:43:18.662Z,52.36
2019-03-12T12:44:18.660Z,52.36
2019-03-12T12:45:18.641Z,52.76
2019-03-12T12:46:18.628Z,52.76
2019-03-12T12:47:18.624Z,51.23
2019-03-12T12:48:18.607Z,53.17
2019-03-12T12:49:18.596Z,53.49
2019-03-12T12:50:18.602Z,53.17
2019-03-12T12:51:18.574Z,52.15
2019-03-12T12:52:18.563Z,50.92